createdAt,value
2022-12-23T00:00:40.770Z,30.67
2022-12-23T00:03:08.044Z,26.58
2022-12-23T00:05:39.547Z,34.88
2022-12-23T00:08:07.749Z,30.25
2022-12-23T00:10:38.346Z,35.15
2022-12-23T00:13:23.685Z,34.10
2022-12-23T00:15:50.741Z,29.50
2022-12-23T00:18:17.648Z,34.45
2022-12-23T00:20:44.493Z,28.42
2022-12-23T00:23:11.268Z,31.77
2022-12-23T00:25:42.391Z,32.63
2022-12-23T00:28:17.610Z,28.10
2022-12-23T00:30:50.056Z,30.80
2022-12-23T00:33:19.164Z,32.05
2022-12-23T00:35:47.134Z,28.77
2022-12-23T00:38:14.996Z,34.75
2022-12-23T00:41:00.555Z,36.03
2022-12-23T00:43:28.072Z,33.15
2022-12-23T00:45:55.195Z,28.45
2022-12-23T00:48:40.697Z,28.80
2022-12-23T00:51:07.512Z,25.83
2022-12-23T00:53:34.415Z,31.35
2022-12-23T00:56:01.291Z,29.13
2022-12-23T00:58:28.399Z,29.60
2022-12-23T01:01:13.845Z,31.67
2022-12-23T01:03:59.425Z,29.55
2022-12-23T01:06:26.182Z,28.00
2022-12-23T01:08:53.106Z,29.15
2022-12-23T01:11:20.055Z,32.55
2022-12-23T01:13:46.832Z,34.47
2022-12-23T01:16:17.579Z,29.05
2022-12-23T01:18:45.155Z,30.10
2022-12-23T01:21:12.609Z,34.00
2022-12-23T01:23:39.608Z,37.28
2022-12-23T01:26:08.449Z,31.60
2022-12-23T01:28:36.415Z,36.45
2022-12-23T01:31:06.059Z,33.70
2022-12-23T01:33:33.617Z,30.92
2022-12-23T01:36:06.715Z,35.38
2022-12-23T01:38:35.061Z,29.70
2022-12-23T01:41:01.890Z,33.15
2022-12-23T01:43:52.096Z,32.55
2022-12-23T01:46:19.127Z,32.40
2022-12-23T01:48:51.715Z,31.02
2022-12-23T01:51:27.871Z,35.67
2022-12-23T01:53:59.632Z,34.90
2022-12-23T01:56:31.161Z,34.72
2022-12-23T01:59:05.128Z,34.65
2022-12-23T02:01:50.705Z,36.90
2022-12-23T02:04:20.655Z,30.80
2022-12-23T02:07:08.469Z,32.05
2022-12-23T02:09:40.241Z,35.97
2022-12-23T02:12:24.947Z,33.80
2022-12-23T02:15:32.439Z,32.53
2022-12-23T02:18:30.819Z,35.63
2022-12-23T02:21:31.806Z,38.92
2022-12-23T02:24:04.558Z,37.22
2022-12-23T02:27:08.603Z,40.45
2022-12-23T02:30:00.879Z,38.55
2022-12-23T02:32:48.068Z,38.10
2022-12-23T02:35:48.089Z,37.53
2022-12-23T02:38:25.838Z,33.88
2022-12-23T02:41:04.799Z,45.15
2022-12-23T02:43:36.234Z,36.60
2022-12-23T02:46:06.123Z,42.38
2022-12-23T02:48:53.226Z,41.97
2022-12-23T02:51:24.873Z,39.08
2022-12-23T02:53:56.887Z,40.95
2022-12-23T02:58:56.750Z,39.70
2022-12-23T03:01:26.087Z,35.60
2022-12-23T03:03:53.635Z,38.97
2022-12-23T03:06:30.441Z,44.38
2022-12-23T03:08:59.441Z,44.40
2022-12-23T03:11:56.242Z,39.35
2022-12-23T03:14:34.977Z,40.88
2022-12-23T03:17:26.071Z,44.50
2022-12-23T03:20:03.415Z,44.55
2022-12-23T03:22:54.116Z,46.60
2022-12-23T03:25:21.019Z,44.92
2022-12-23T03:27:52.431Z,41.95
2022-12-23T03:30:20.786Z,45.53
2022-12-23T03:32:52.433Z,48.15
2022-12-23T03:35:24.269Z,46.00
2022-12-23T03:37:53.496Z,44.80
2022-12-23T03:40:27.608Z,48.47
2022-12-23T03:43:20.143Z,48.08
2022-12-23T03:45:56.663Z,48.85
2022-12-23T03:48:29.747Z,47.70
2022-12-23T03:51:01.086Z,46.78
2022-12-23T03:53:32.548Z,47.97
2022-12-23T03:56:06.550Z,51.05
2022-12-23T03:58:45.151Z,46.78
2022-12-23T04:01:33.780Z,50.22
2022-12-23T04:04:25.487Z,46.72
2022-12-23T04:06:59.275Z,47.15
2022-12-23T04:09:28.520Z,51.63
2022-12-23T04:11:58.106Z,44.83
2022-12-23T04:14:24.857Z,47.67
2022-12-23T04:16:55.498Z,51.75
2022-12-23T04:19:22.851Z,55.78
2022-12-23T04:21:49.874Z,52.05
2022-12-23T04:24:16.690Z,48.70
2022-12-23T04:26:43.525Z,53.40
2022-12-23T04:29:10.360Z,51.42
2022-12-23T04:31:37.165Z,55.60
2022-12-23T04:34:04.086Z,46.30
2022-12-23T04:36:30.910Z,52.75
2022-12-23T04:38:57.654Z,50.90
2022-12-23T04:41:24.515Z,50.97
2022-12-23T04:43:53.393Z,52.88
2022-12-23T04:46:20.856Z,55.00
2022-12-23T04:48:47.799Z,47.85
2022-12-23T04:51:14.685Z,54.17
2022-12-23T04:53:41.546Z,57.67
2022-12-23T04:56:08.358Z,51.25
2022-12-23T04:58:35.266Z,63.05
2022-12-23T05:01:04.595Z,56.80
2022-12-23T05:03:31.813Z,55.08
2022-12-23T05:05:58.685Z,57.00
2022-12-23T05:08:25.537Z,56.22
2022-12-23T05:10:52.373Z,55.00
2022-12-23T05:13:19.101Z,55.15
2022-12-23T05:15:46.882Z,57.28
2022-12-23T05:18:13.608Z,62.35
2022-12-23T05:20:40.385Z,58.05
2022-12-23T05:23:07.511Z,61.95
2022-12-23T05:25:36.018Z,61.20
2022-12-23T05:28:03.210Z,64.15
2022-12-23T05:30:30.296Z,57.40
2022-12-23T05:32:57.561Z,66.40
2022-12-23T05:35:25.511Z,56.33
2022-12-23T05:37:52.927Z,66.40
2022-12-23T05:40:23.762Z,63.47
2022-12-23T05:42:52.685Z,62.53
2022-12-23T05:45:19.636Z,68.38
2022-12-23T05:47:46.674Z,70.22
2022-12-23T05:50:14.649Z,61.83
2022-12-23T05:52:41.381Z,68.13
2022-12-23T05:55:08.949Z,69.78
2022-12-23T05:57:35.776Z,68.13
2022-12-23T06:00:04.204Z,69.05
2022-12-23T06:02:31.230Z,75.50
2022-12-23T06:04:58.227Z,65.68
2022-12-23T06:07:24.953Z,67.57
2022-12-23T06:09:51.666Z,69.15
2022-12-23T06:12:18.442Z,71.55
2022-12-23T06:14:45.111Z,80.68
2022-12-23T06:17:11.743Z,77.53
2022-12-23T06:19:38.550Z,77.88
2022-12-23T06:22:05.309Z,76.10
2022-12-23T06:24:32.042Z,78.20
2022-12-23T06:26:58.784Z,85.40
2022-12-23T06:29:25.560Z,73.40
2022-12-23T06:31:52.485Z,76.50
2022-12-23T06:34:19.252Z,73.13
2022-12-23T06:36:46.037Z,73.45
2022-12-23T06:39:13.153Z,70.10
2022-12-23T06:41:39.919Z,83.72
2022-12-23T06:44:07.006Z,74.30
2022-12-23T06:46:34.065Z,75.07
2022-12-23T06:49:00.882Z,70.13
2022-12-23T06:51:27.631Z,76.60
2022-12-23T06:53:54.815Z,76.57
2022-12-23T06:56:22.153Z,73.13
2022-12-23T06:58:48.899Z,79.88
2022-12-23T07:01:15.734Z,73.85
2022-12-23T07:03:42.654Z,78.03
2022-12-23T07:06:09.550Z,71.47
2022-12-23T07:08:36.706Z,83.53
2022-12-23T07:11:05.028Z,77.20
2022-12-23T07:13:33.094Z,77.70
2022-12-23T07:16:04.769Z,84.13
2022-12-23T07:18:31.675Z,75.90
2022-12-23T07:21:00.792Z,83.72
2022-12-23T07:23:27.728Z,81.18
2022-12-23T07:25:55.701Z,74.13
2022-12-23T07:28:23.540Z,72.32
2022-12-23T07:30:50.341Z,66.63
2022-12-23T07:33:17.125Z,66.10
2022-12-23T07:35:43.830Z,77.63
2022-12-23T07:38:10.965Z,70.28
2022-12-23T07:40:37.755Z,83.05
2022-12-23T07:43:05.578Z,81.35
2022-12-23T07:45:32.465Z,73.25
2022-12-23T07:48:01.010Z,74.03
2022-12-23T07:50:28.435Z,73.70
2022-12-23T07:52:55.661Z,74.32
2022-12-23T07:55:22.623Z,66.30
2022-12-23T07:57:50.604Z,67.72
2022-12-23T08:00:18.080Z,67.05
2022-12-23T08:02:45.341Z,72.35
2022-12-23T08:05:13.404Z,76.80
2022-12-23T08:07:40.225Z,79.53
2022-12-23T08:10:07.801Z,72.90
2022-12-23T08:12:34.622Z,67.07
2022-12-23T08:15:01.332Z,71.60
2022-12-23T08:17:29.866Z,64.88
2022-12-23T08:19:57.038Z,66.32
2022-12-23T08:22:24.132Z,61.20
2022-12-23T08:24:51.023Z,65.18
2022-12-23T08:27:18.028Z,66.40
2022-12-23T08:29:44.845Z,76.20
2022-12-23T08:32:11.843Z,66.50
2022-12-23T08:34:38.663Z,72.80
2022-12-23T08:37:05.775Z,73.72
2022-12-23T08:39:32.700Z,61.38
2022-12-23T08:41:59.673Z,61.10
2022-12-23T08:44:29.785Z,60.47
2022-12-23T08:46:56.597Z,60.88
2022-12-23T08:49:23.615Z,57.90
2022-12-23T08:51:50.530Z,48.03
2022-12-23T08:54:19.672Z,53.78
2022-12-23T08:56:46.397Z,53.47
2022-12-23T08:59:19.089Z,56.95
2022-12-23T09:01:47.113Z,57.05
2022-12-23T09:04:13.981Z,50.78
2022-12-23T09:06:42.561Z,51.50
2022-12-23T09:09:11.938Z,51.90
2022-12-23T09:11:38.978Z,51.53
2022-12-23T09:14:08.755Z,48.60
2022-12-23T09:16:36.399Z,49.15
2022-12-23T09:19:04.556Z,52.80
2022-12-23T09:21:31.635Z,45.15
2022-12-23T09:23:58.454Z,45.63
2022-12-23T09:26:29.788Z,46.72
2022-12-23T09:28:56.830Z,37.15
2022-12-23T09:31:26.705Z,43.85
2022-12-23T09:33:56.277Z,44.83
2022-12-23T09:36:23.284Z,42.72
2022-12-23T09:38:57.630Z,43.83
2022-12-23T09:42:23.732Z,46.78
2022-12-23T09:45:13.021Z,42.45
2022-12-23T09:47:41.401Z,41.45
2022-12-23T09:50:32.114Z,49.50
2022-12-23T09:55:47.777Z,43.30
2022-12-23T09:58:43.472Z,42.30
2022-12-23T10:01:29.291Z,44.30
2022-12-23T10:04:32.744Z,36.25
2022-12-23T10:07:05.698Z,43.63
2022-12-23T10:09:37.216Z,39.75
2022-12-23T10:15:22.480Z,30.67
2022-12-23T10:17:54.656Z,27.05
2022-12-23T10:20:37.821Z,24.10
2022-12-23T10:23:10.804Z,25.27
2022-12-23T10:25:43.706Z,22.05
2022-12-23T10:28:11.198Z,27.75
2022-12-23T10:33:57.339Z,25.15
2022-12-23T10:36:33.327Z,19.08
2022-12-23T10:39:15.315Z,23.70
2022-12-23T10:42:11.291Z,27.35
2022-12-23T10:45:04.485Z,26.58
2022-12-23T10:47:49.190Z,20.88
2022-12-23T10:50:16.063Z,20.10
2022-12-23T10:52:46.186Z,30.38
2022-12-23T10:55:32.940Z,23.30
2022-12-23T10:58:07.898Z,24.45
2022-12-23T11:00:38.863Z,22.10
2022-12-23T11:03:05.679Z,25.63
2022-12-23T11:05:34.406Z,24.13
2022-12-23T11:08:01.878Z,22.58
2022-12-23T11:10:33.042Z,24.58
2022-12-23T11:13:00.743Z,23.15
2022-12-23T11:15:30.457Z,20.67
2022-12-23T11:18:07.257Z,22.25
2022-12-23T11:20:36.578Z,20.98
2022-12-23T11:23:06.027Z,22.33
2022-12-23T11:25:43.612Z,19.08
2022-12-23T11:28:10.417Z,18.38
2022-12-23T11:30:55.566Z,20.40
2022-12-23T11:33:25.205Z,16.30
2022-12-23T11:36:07.871Z,15.05
2022-12-23T11:38:37.662Z,17.17
2022-12-23T11:41:05.389Z,15.65
2022-12-23T11:43:32.950Z,13.63
2022-12-23T11:46:19.213Z,17.88
2022-12-23T11:48:51.331Z,16.63
2022-12-23T11:51:26.757Z,15.95
2022-12-23T11:54:00.314Z,14.43
2022-12-23T11:56:28.449Z,14.18
2022-12-23T11:59:04.361Z,13.18
2022-12-23T12:01:31.510Z,15.07
2022-12-23T12:04:03.000Z,13.85
2022-12-23T12:06:32.533Z,13.65
2022-12-23T12:09:01.314Z,12.73
2022-12-23T12:11:48.849Z,11.52
2022-12-23T12:14:24.715Z,13.25
2022-12-23T12:17:08.667Z,13.05
2022-12-23T12:19:42.627Z,12.43
2022-12-23T12:22:21.404Z,15.98
2022-12-23T12:24:52.784Z,13.30
2022-12-23T12:27:26.721Z,13.65
2022-12-23T12:29:57.610Z,11.48
2022-12-23T12:32:44.608Z,10.75
2022-12-23T12:35:58.946Z,15.23
2022-12-23T12:38:34.459Z,7.55
2022-12-23T12:41:31.797Z,8.75
2022-12-23T12:44:04.768Z,8.80
2022-12-23T12:46:47.171Z,7.07
2022-12-23T12:49:21.064Z,5.82
2022-12-23T12:52:13.732Z,5.70
2022-12-23T12:55:05.041Z,7.55
2022-12-23T12:57:36.215Z,8.95
2022-12-23T13:00:06.940Z,5.88
2022-12-23T13:03:03.857Z,6.40
2022-12-23T13:06:03.179Z,6.07
2022-12-23T13:08:51.671Z,7.05
2022-12-23T13:11:30.588Z,6.45
2022-12-23T13:14:00.419Z,7.90
2022-12-23T13:16:58.377Z,7.13
2022-12-23T13:19:51.407Z,7.65
2022-12-23T13:22:28.513Z,6.05
2022-12-23T13:25:04.170Z,7.60
2022-12-23T13:27:38.046Z,5.57
2022-12-23T13:30:17.913Z,8.43
2022-12-23T13:33:08.270Z,7.50
2022-12-23T13:35:45.238Z,7.43
2022-12-23T13:38:17.991Z,5.35
2022-12-23T13:41:08.935Z,8.20
2022-12-23T13:44:00.180Z,5.15
2022-12-23T13:46:36.036Z,5.90
2022-12-23T13:49:14.694Z,6.07
2022-12-23T13:51:57.572Z,5.80
2022-12-23T13:54:57.022Z,7.40
2022-12-23T13:57:51.743Z,5.68
2022-12-23T14:00:19.324Z,5.63
2022-12-23T14:03:02.090Z,8.65
2022-12-23T14:05:45.357Z,5.88
2022-12-23T14:08:18.345Z,5.50
2022-12-23T14:11:10.592Z,5.97
2022-12-23T14:13:43.823Z,9.60
2022-12-23T14:16:48.346Z,10.07
2022-12-23T14:19:37.041Z,5.55
2022-12-23T14:22:06.917Z,7.40
2022-12-23T14:25:11.382Z,8.15
2022-12-23T14:27:59.975Z,7.20
2022-12-23T14:30:41.189Z,10.18
2022-12-23T14:33:28.559Z,7.38
2022-12-23T14:36:34.187Z,9.57
2022-12-23T14:39:13.273Z,6.85
2022-12-23T14:41:50.988Z,7.90
2022-12-23T14:44:22.412Z,11.65
2022-12-23T14:46:50.087Z,12.18
2022-12-23T14:49:40.352Z,10.70
2022-12-23T14:52:50.213Z,10.52
2022-12-23T14:55:31.547Z,10.80
2022-12-23T14:58:17.213Z,14.68
2022-12-23T15:00:50.572Z,16.38
2022-12-23T15:03:20.177Z,15.98
2022-12-23T15:05:47.206Z,19.88
2022-12-23T15:08:39.329Z,14.73
2022-12-23T15:11:09.493Z,14.30
2022-12-23T15:13:37.214Z,11.18
2022-12-23T15:16:04.121Z,14.13
2022-12-23T15:18:30.973Z,10.52
2022-12-23T15:21:02.535Z,17.17
2022-12-23T15:23:29.991Z,13.45
2022-12-23T15:26:00.961Z,10.38
2022-12-23T15:28:39.340Z,11.25
2022-12-23T15:31:16.111Z,8.13
2022-12-23T15:34:04.103Z,9.15
2022-12-23T15:36:36.984Z,14.02
2022-12-23T15:39:10.534Z,14.45
2022-12-23T15:41:45.313Z,13.65
2022-12-23T15:44:21.977Z,11.63
2022-12-23T15:46:50.567Z,12.63
2022-12-23T15:49:19.815Z,9.50
2022-12-23T15:52:08.763Z,8.77
2022-12-23T15:54:47.781Z,8.95
2022-12-23T15:57:20.366Z,8.13
2022-12-23T15:59:47.696Z,10.07
2022-12-23T16:05:11.020Z,9.23
2022-12-23T16:07:40.985Z,9.57
2022-12-23T16:10:16.685Z,9.55
2022-12-23T16:12:44.083Z,11.23
2022-12-23T16:15:26.648Z,12.43
2022-12-23T16:18:20.773Z,10.40
2022-12-23T16:21:03.650Z,11.20
2022-12-23T16:23:36.449Z,10.10
2022-12-23T16:26:04.042Z,10.90
2022-12-23T16:28:40.358Z,9.88
2022-12-23T16:31:09.944Z,10.05
2022-12-23T16:33:49.152Z,13.00
2022-12-23T16:36:20.344Z,7.45
2022-12-23T16:38:49.309Z,8.43
2022-12-23T16:41:19.656Z,8.20
2022-12-23T16:43:51.811Z,7.68
2022-12-23T16:46:22.137Z,7.95
2022-12-23T16:49:00.843Z,10.73
2022-12-23T16:51:30.674Z,10.93
2022-12-23T16:53:57.779Z,12.82
2022-12-23T16:56:29.830Z,16.20
2022-12-23T16:58:57.522Z,19.23
2022-12-23T17:01:30.790Z,16.33
2022-12-23T17:03:57.823Z,21.83
2022-12-23T17:06:25.391Z,19.20
2022-12-23T17:08:56.964Z,13.60
2022-12-23T17:11:29.192Z,13.63
2022-12-23T17:16:31.059Z,12.98
2022-12-23T17:19:00.635Z,12.15
2022-12-23T17:21:34.371Z,13.98
2022-12-23T17:24:11.929Z,13.23
2022-12-23T17:26:38.677Z,14.52
2022-12-23T17:29:06.001Z,20.88
2022-12-23T17:31:34.586Z,16.52
2022-12-23T17:34:01.910Z,19.83
2022-12-23T17:36:29.193Z,17.35
2022-12-23T17:38:56.022Z,18.13
2022-12-23T17:41:31.728Z,16.58
2022-12-23T17:43:58.940Z,19.30
2022-12-23T17:46:26.722Z,22.20
2022-12-23T17:48:53.810Z,25.95
2022-12-23T17:51:22.886Z,29.38
2022-12-23T17:53:56.879Z,22.15
2022-12-23T17:56:25.942Z,22.42
2022-12-23T17:58:52.688Z,25.48
2022-12-23T18:01:21.954Z,24.80
2022-12-23T18:03:48.806Z,20.05
2022-12-23T18:06:17.907Z,30.70
2022-12-23T18:08:45.424Z,24.45
2022-12-23T18:11:31.383Z,22.55
2022-12-23T18:13:58.228Z,20.90
2022-12-23T18:16:25.184Z,26.00
2022-12-23T18:18:52.931Z,30.42
2022-12-23T18:21:26.269Z,28.80
2022-12-23T18:23:55.476Z,30.67
2022-12-23T18:26:22.379Z,28.20
2022-12-23T18:28:55.175Z,24.15
2022-12-23T18:31:24.188Z,28.05
2022-12-23T18:33:51.775Z,22.65
2022-12-23T18:36:37.753Z,20.17
2022-12-23T18:39:04.508Z,22.35
2022-12-23T18:41:31.227Z,21.92
2022-12-23T18:43:58.044Z,27.30
2022-12-23T18:46:24.865Z,26.73
2022-12-23T18:48:51.821Z,28.13
2022-12-23T18:51:21.386Z,30.60
2022-12-23T18:53:49.402Z,44.42
2022-12-23T18:56:20.968Z,33.22
2022-12-23T18:58:47.839Z,45.63
2022-12-23T19:01:16.572Z,54.05
2022-12-23T19:03:43.354Z,52.03
2022-12-23T19:06:13.433Z,67.47
2022-12-23T19:08:41.633Z,52.75
2022-12-23T19:11:18.189Z,53.83
2022-12-23T19:13:45.695Z,79.18
2022-12-23T19:16:19.825Z,49.40
2022-12-23T19:18:48.067Z,52.80
2022-12-23T19:21:15.790Z,52.03
2022-12-23T19:23:42.545Z,49.65
2022-12-23T19:26:11.161Z,45.50
2022-12-23T19:28:39.024Z,40.35
2022-12-23T19:31:11.225Z,52.38
2022-12-23T19:33:38.762Z,39.08
2022-12-23T19:36:14.726Z,40.28
2022-12-23T19:38:42.974Z,30.20
2022-12-23T19:41:10.516Z,31.73
2022-12-23T19:43:38.508Z,41.30
2022-12-23T19:46:08.397Z,31.60
2022-12-23T19:48:36.468Z,34.03
2022-12-23T19:51:09.254Z,31.33
2022-12-23T19:53:36.959Z,26.45
2022-12-23T19:56:11.883Z,28.90
2022-12-23T19:58:40.853Z,29.80
2022-12-23T20:01:15.477Z,28.38
2022-12-23T20:03:43.925Z,26.25
2022-12-23T20:06:25.792Z,26.33
2022-12-23T20:08:59.790Z,24.38
2022-12-23T20:11:30.544Z,26.40
2022-12-23T20:14:00.574Z,24.95
2022-12-23T20:16:28.745Z,26.30
2022-12-23T20:18:56.198Z,23.50
2022-12-23T20:21:23.572Z,22.08
2022-12-23T20:23:50.683Z,26.67
2022-12-23T20:26:18.853Z,26.48
2022-12-23T20:28:46.638Z,27.63
2022-12-23T20:31:21.109Z,25.83
2022-12-23T20:33:49.705Z,26.80
2022-12-23T20:36:19.547Z,26.65
2022-12-23T20:38:47.449Z,25.27
2022-12-23T20:41:20.504Z,24.13
2022-12-23T20:44:02.793Z,24.80
2022-12-23T20:46:34.985Z,24.92
2022-12-23T20:49:01.869Z,27.50
2022-12-23T20:51:28.701Z,25.52
2022-12-23T20:53:59.807Z,27.65
2022-12-23T20:56:29.252Z,29.70
2022-12-23T20:58:58.609Z,23.77
2022-12-23T21:01:31.654Z,21.67
2022-12-23T21:04:01.436Z,27.65
2022-12-23T21:06:30.453Z,23.35
2022-12-23T21:08:59.538Z,23.33
2022-12-23T21:11:31.746Z,22.65
2022-12-23T21:14:06.179Z,21.10
2022-12-23T21:16:38.109Z,24.98
2022-12-23T21:19:07.162Z,25.42
2022-12-23T21:21:34.135Z,23.70
2022-12-23T21:24:04.498Z,20.67
2022-12-23T21:26:33.356Z,20.98
2022-12-23T21:29:04.232Z,23.25
2022-12-23T21:31:32.529Z,20.00
2022-12-23T21:33:59.300Z,20.42
2022-12-23T21:36:31.321Z,18.27
2022-12-23T21:38:59.033Z,21.02
2022-12-23T21:41:31.015Z,17.63
2022-12-23T21:46:26.245Z,18.00
2022-12-23T21:48:55.202Z,17.80
2022-12-23T21:51:25.350Z,17.23
2022-12-23T21:53:54.196Z,17.52
2022-12-23T21:56:29.308Z,17.52
2022-12-23T21:59:08.081Z,16.83
2022-12-23T22:01:35.092Z,15.57
2022-12-23T22:04:02.137Z,18.33
2022-12-23T22:06:31.973Z,13.13
2022-12-23T22:08:59.632Z,18.02
2022-12-23T22:11:31.279Z,18.10
2022-12-23T22:14:02.779Z,16.13
2022-12-23T22:16:30.500Z,18.75
2022-12-23T22:18:58.415Z,18.40
2022-12-23T22:21:27.893Z,13.40
2022-12-23T22:23:56.262Z,14.00
2022-12-23T22:26:28.980Z,18.00
2022-12-23T22:28:57.605Z,16.20
2022-12-23T22:31:39.814Z,13.23
2022-12-23T22:34:08.221Z,17.33
2022-12-23T22:36:37.936Z,16.83
2022-12-23T22:39:06.578Z,15.00
2022-12-23T22:41:34.542Z,14.35
2022-12-23T22:44:01.400Z,14.50
2022-12-23T22:46:28.911Z,14.70
2022-12-23T22:48:56.967Z,16.42
2022-12-23T22:51:26.642Z,13.90
2022-12-23T22:53:53.897Z,14.85
2022-12-23T22:56:21.984Z,15.60
2022-12-23T22:58:50.061Z,12.18
2022-12-23T23:01:22.819Z,13.02
2022-12-23T23:03:56.669Z,12.65
2022-12-23T23:06:34.911Z,11.93
2022-12-23T23:09:01.800Z,13.10
2022-12-23T23:11:29.431Z,13.23
2022-12-23T23:13:57.212Z,15.90
2022-12-23T23:16:24.986Z,12.55
2022-12-23T23:18:52.710Z,13.18
2022-12-23T23:21:19.791Z,15.40
2022-12-23T23:23:46.528Z,13.38
2022-12-23T23:26:13.435Z,17.60
2022-12-23T23:28:40.882Z,13.95
2022-12-23T23:33:57.900Z,16.98
2022-12-23T23:36:25.032Z,13.93
2022-12-23T23:38:55.416Z,13.77
2022-12-23T23:41:26.302Z,14.20
2022-12-23T23:43:53.440Z,11.57
2022-12-23T23:46:20.316Z,10.43
2022-12-23T23:48:47.730Z,14.40
2022-12-23T23:51:14.448Z,10.75
2022-12-23T23:53:44.594Z,16.75
2022-12-23T23:56:12.523Z,11.63
2022-12-23T23:58:39.331Z,11.57
